PST,Max TemperatureF,Mean TemperatureF,Min TemperatureF,Max Dew PointF,MeanDew PointF,Min DewpointF,Max Humidity, Mean Humidity, Min Humidity, Max Sea Level PressureIn, Mean Sea Level PressureIn, Min Sea Level PressureIn, Max VisibilityMiles, Mean VisibilityMiles, Min VisibilityMiles, Max Wind SpeedMPH, Mean Wind SpeedMPH, Max Gust SpeedMPH,PrecipitationIn, CloudCover, Events, WindDirDegrees
2012-11-1,66,60,55,52,51,48,81,71,56,30.04,30.00,29.96,10,8,4,9,2,,0.00,3,,238
2012-11-2,69,62,55,55,52,48,88,72,52,30.02,29.98,29.93,10,8,3,8,3,,0.00,2,,149
2012-11-3,71,62,53,57,53,48,87,77,59,30.05,30.01,29.98,10,7,4,9,1,,0.01,0,,291
2012-11-4,86,68,53,55,46,35,87,50,17,30.08,30.04,30.01,10,9,4,6,3,,0.01,0,,70
2012-11-5,90,75,60,48,37,24,51,31,9,30.07,30.02,29.98,10,10,10,7,4,,0.00,0,,60
2012-11-6,80,70,61,61,53,38,88,63,34,30.09,30.04,30.00,10,8,2,9,4,,0.00,2,,225
2012-11-7,66,64,61,57,54,53,81,74,63,30.08,30.02,29.96,10,7,2,9,2,,0.00,6,,225
2012-11-8,64,62,60,55,52,46,82,72,60,30.03,29.94,29.88,10,9,3,8,4,,0.07,7,Rain,230
2012-11-9,63,58,52,45,40,36,69,53,38,29.95,29.90,29.86,10,10,10,21,6,30,0.00,1,,257
2012-11-10,61,54,46,42,32,24,61,43,28,30.17,30.05,29.96,10,10,10,16,5,24,0.00,1,,293
2012-11-11,66,56,46,33,24,14,39,29,13,30.29,30.25,30.18,10,10,10,9,5,,0.00,0,,9
2012-11-12,72,59,46,44,24,10,67,31,9,30.27,30.18,30.11,10,10,10,10,3,,0.00,0,,357
2012-11-13,80,65,50,39,19,9,43,18,7,30.12,30.06,30.00,10,10,10,8,4,,0.00,0,,29
2012-11-14,77,66,54,54,38,12,88,50,12,30.06,30.03,29.99,10,8,0,6,4,,0.00,1,Fog,85
2012-11-15,68,60,53,53,44,35,83,58,30,30.11,30.07,30.02,10,8,4,6,2,,0.00,3,Rain,70
2012-11-16,71,64,57,56,50,43,83,64,42,30.12,30.07,30.02,10,9,6,8,1,,0.03,7,Rain,218
2012-11-17,68,64,60,58,56,54,88,81,61,30.11,30.07,30.04,10,7,2,13,4,17,0.09,8,Rain,104
2012-11-18,66,60,55,57,53,49,90,77,56,30.19,30.12,30.08,10,9,2,12,2,,0.01,4,,232
2012-11-19,66,58,51,53,51,48,88,76,60,30.25,30.20,30.17,10,10,10,9,3,,0.00,1,,219
2012-11-20,66,58,51,53,50,46,83,74,52,30.17,30.10,30.04,10,10,10,8,3,,0.01,0,,286
2012-11-21,64,58,51,53,50,47,87,78,63,30.11,30.06,30.02,10,9,5,7,3,,0.01,0,,169
2012-11-22,66,60,53,54,52,50,94,84,63,30.13,30.09,30.05,8,3,0,7,1,,0.01,4,Fog,73
2012-11-23,66,58,51,54,51,49,93,86,60,30.17,30.12,30.07,8,2,0,7,1,,0.01,3,Fog,217
2012-11-24,70,60,50,55,50,46,90,79,44,30.09,30.03,29.93,10,6,0,8,2,,0.02,1,Fog,227
2012-11-25,66,58,51,54,52,48,93,82,65,29.99,29.94,29.89,10,4,0,9,2,,0.01,5,Fog,91
2012-11-26,64,59,54,52,50,48,83,71,56,30.12,30.05,29.99,10,7,4,8,2,,0.00,4,,178
2012-11-27,64,58,51,54,50,47,86,76,60,30.17,30.12,30.06,10,7,4,9,1,,0.00,2,,237
2012-11-28,66,62,57,55,52,48,88,73,51,30.21,30.17,30.11,10,6,2,7,2,,0.02,7,Rain,103
2012-11-29,63,60,57,61,56,50,94,89,77,30.23,30.18,30.15,6,3,1,7,5,,0.21,8,Rain,84
2012-11-30,64,62,60,63,61,57,97,94,90,30.15,30.12,30.06,10,4,1,8,1,,0.98,8,Rain,134